sensor_id;sensor_type;location;lat;lon;timestamp;pressure;altitude;pressure_sealevel;temperature;humidity
54459;BME280;40368;49.350;8.152;2022-11-14T00:00:56;1002.1;;;11.44;55.46
54459;BME280;40368;49.350;8.152;2022-11-14T00:02:10;1002.1;;;11.42;54.86
54459;BME280;40368;49.350;8.152;2022-11-14T00:02:47;1002.1;;;11.42;55.55
54459;BME280;40368;49.350;8.152;2022-11-14T00:04:01;1002.1;;;11.42;55.5
54459;BME280;40368;49.350;8.152;2022-11-14T00:05:16;1002.1;;;11.42;55.54
54459;BME280;40368;49.350;8.152;2022-11-14T00:05:53;1002.1;;;11.42;54.92
54459;BME280;40368;49.350;8.152;2022-11-14T00:07:07;1002.2;;;11.47;55.58
54459;BME280;40368;49.350;8.152;2022-11-14T00:07:44;1002.1;;;11.46;55.24
54459;BME280;40368;49.350;8.152;2022-11-14T00:08:58;1002.2;;;11.48;55.53
54459;BME280;40368;49.350;8.152;2022-11-14T00:10:12;1002.1;;;11.49;55.47
54459;BME280;40368;49.350;8.152;2022-11-14T00:10:49;1002.1;;;11.3;55.13
54459;BME280;40368;49.350;8.152;2022-11-14T00:12:03;1002.2;;;11.48;55.41
54459;BME280;40368;49.350;8.152;2022-11-14T00:13:54;1002.1;;;11.5;55.33
54459;BME280;40368;49.350;8.152;2022-11-14T00:15:09;1002.1;;;11.51;55.4
54459;BME280;40368;49.350;8.152;2022-11-14T00:15:47;1002.1;;;11.49;55.36
54459;BME280;40368;49.350;8.152;2022-11-14T00:17:00;1002.1;;;11.52;55.17
54459;BME280;40368;49.350;8.152;2022-11-14T00:18:14;1002.1;;;11.52;54.9
54459;BME280;40368;49.350;8.152;2022-11-14T00:18:51;1002.1;;;11.52;55.23
54459;BME280;40368;49.350;8.152;2022-11-14T00:20:06;1002.1;;;11.51;55.4
54459;BME280;40368;49.350;8.152;2022-11-14T00:20:42;1002.1;;;11.52;55.04
54459;BME280;40368;49.350;8.152;2022-11-14T00:21:56;1002.1;;;11.53;55.09
54459;BME280;40368;49.350;8.152;2022-11-14T00:23:10;1002;;;11.56;55.33
54459;BME280;40368;49.350;8.152;2022-11-14T00:23:47;1002;;;11.53;55.14
54459;BME280;40368;49.350;8.152;2022-11-14T00:25:02;1002;;;11.56;54.84
54459;BME280;40368;49.350;8.152;2022-11-14T00:26:16;1002;;;11.55;55.27
54459;BME280;40368;49.350;8.152;2022-11-14T00:26:53;1002;;;11.55;55.16
54459;BME280;40368;49.350;8.152;2022-11-14T00:28:07;1002;;;11.57;55.03
54459;BME280;40368;49.350;8.152;2022-11-14T00:28:44;1002;;;11.56;55.2
54459;BME280;40368;49.350;8.152;2022-11-14T00:29:58;1001.9;;;11.58;55.19
54459;BME280;40368;49.350;8.152;2022-11-14T00:31:12;1001.9;;;11.59;55.01
54459;BME280;40368;49.350;8.152;2022-11-14T00:31:49;1001.9;;;11.58;54.93
54459;BME280;40368;49.350;8.152;2022-11-14T00:33:03;1001.9;;;11.59;55.1
54459;BME280;40368;49.350;8.152;2022-11-14T00:34:17;1001.9;;;11.61;55.17
54459;BME280;40368;49.350;8.152;2022-11-14T00:34:54;1001.9;;;11.6;55.11
54459;BME280;40368;49.350;8.152;2022-11-14T00:36:09;1001.8;;;11.59;54.88
54459;BME280;40368;49.350;8.152;2022-11-14T00:36:46;1001.8;;;11.6;54.75
54459;BME280;40368;49.350;8.152;2022-11-14T00:38:00;1001.8;;;11.59;54.92
54459;BME280;40368;49.350;8.152;2022-11-14T00:39:14;1001.8;;;11.62;54.96
54459;BME280;40368;49.350;8.152;2022-11-14T00:39:51;1001.8;;;11.61;55.04
54459;BME280;40368;49.350;8.152;2022-11-14T00:41:05;1001.8;;;11.64;54.61
54459;BME280;40368;49.350;8.152;2022-11-14T00:41:42;1001.8;;;11.63;55.06
54459;BME280;40368;49.350;8.152;2022-11-14T00:42:56;1001.7;;;11.64;54.93
54459;BME280;40368;49.350;8.152;2022-11-14T00:44:10;1001.7;;;11.68;54.97
54459;BME280;40368;49.350;8.152;2022-11-14T00:44:47;1001.7;;;11.65;55.01
54459;BME280;40368;49.350;8.152;2022-11-14T00:46:02;1001.7;;;11.69;55.04
54459;BME280;40368;49.350;8.152;2022-11-14T00:47:16;1001.7;;;11.7;54.91
54459;BME280;40368;49.350;8.152;2022-11-14T00:47:53;1001.7;;;11.69;55.02
54459;BME280;40368;49.350;8.152;2022-11-14T00:49:07;1001.7;;;11.71;54.78
54459;BME280;40368;49.350;8.152;2022-11-14T00:49:44;1001.7;;;11.72;54.83
54459;BME280;40368;49.350;8.152;2022-11-14T00:50:58;1001.7;;;11.69;54.9
54459;BME280;40368;49.350;8.152;2022-11-14T00:52:12;1001.7;;;11.72;55.12
54459;BME280;40368;49.350;8.152;2022-11-14T00:53:18;1001.8;;;11.73;54.79
54459;BME280;40368;49.350;8.152;2022-11-14T00:53:55;1001.7;;;11.7;54.98
54459;BME280;40368;49.350;8.152;2022-11-14T00:55:09;1001.7;;;11.74;54.97
54459;BME280;40368;49.350;8.152;2022-11-14T00:55:46;1001.7;;;11.72;54.99
54459;BME280;40368;49.350;8.152;2022-11-14T00:57:01;1001.8;;;11.75;54.96
54459;BME280;40368;49.350;8.152;2022-11-14T00:58:15;1001.7;;;11.74;54.87
54459;BME280;40368;49.350;8.152;2022-11-14T00:58:52;1001.7;;;11.75;54.96
54459;BME280;40368;49.350;8.152;2022-11-14T01:00:06;1001.8;;;11.73;55.03
54459;BME280;40368;49.350;8.152;2022-11-14T01:00:43;1001.7;;;11.73;55.03
54459;BME280;40368;49.350;8.152;2022-11-14T01:01:57;1001.8;;;11.73;55.05
54459;BME280;40368;49.350;8.152;2022-11-14T01:03:11;1001.8;;;11.74;55.02
54459;BME280;40368;49.350;8.152;2022-11-14T01:03:48;1001.8;;;11.73;55.12
54459;BME280;40368;49.350;8.152;2022-11-14T01:05:03;1001.8;;;11.74;55.12
54459;BME280;40368;49.350;8.152;2022-11-14T01:06:17;1001.8;;;11.75;55.07
54459;BME280;40368;49.350;8.152;2022-11-14T01:06:54;1001.8;;;11.75;55.05
54459;BME280;40368;49.350;8.152;2022-11-14T01:08:08;1001.7;;;11.76;55.18
54459;BME280;40368;49.350;8.152;2022-11-14T01:08:45;1001.8;;;11.75;54.98
54459;BME280;40368;49.350;8.152;2022-11-14T01:09:59;1001.7;;;11.75;55.22
54459;BME280;40368;49.350;8.152;2022-11-14T01:11:14;1001.8;;;11.78;55.14
54459;BME280;40368;49.350;8.152;2022-11-14T01:11:50;1001.7;;;11.76;55.03
54459;BME280;40368;49.350;8.152;2022-11-14T01:13:04;1001.8;;;11.79;55.15
54459;BME280;40368;49.350;8.152;2022-11-14T01:14:18;1001.8;;;11.78;55.15
54459;BME280;40368;49.350;8.152;2022-11-14T01:14:55;1001.8;;;11.79;55.13
54459;BME280;40368;49.350;8.152;2022-11-14T01:16:10;1001.8;;;11.8;55.17
54459;BME280;40368;49.350;8.152;2022-11-14T01:16:47;1001.8;;;11.8;55.17
54459;BME280;40368;49.350;8.152;2022-11-14T01:18:01;1001.8;;;11.79;55.26
54459;BME280;40368;49.350;8.152;2022-11-14T01:19:15;1001.8;;;11.81;55.33
54459;BME280;40368;49.350;8.152;2022-11-14T01:19:52;1001.8;;;11.8;55.36
54459;BME280;40368;49.350;8.152;2022-11-14T01:21:07;1001.8;;;11.82;55.18
54459;BME280;40368;49.350;8.152;2022-11-14T01:21:43;1001.8;;;11.82;55.2
54459;BME280;40368;49.350;8.152;2022-11-14T01:22:57;1001.8;;;11.81;55.26
54459;BME280;40368;49.350;8.152;2022-11-14T01:24:11;1001.7;;;11.77;55.51
54459;BME280;40368;49.350;8.152;2022-11-14T01:24:48;1001.8;;;11.79;55.29
54459;BME280;40368;49.350;8.152;2022-11-14T01:26:03;1001.7;;;11.76;55.31
54459;BME280;40368;49.350;8.152;2022-11-14T01:27:17;1001.7;;;11.8;55.84
54459;BME280;40368;49.350;8.152;2022-11-14T01:27:54;1001.7;;;11.78;55.68
54459;BME280;40368;49.350;8.152;2022-11-14T01:29:08;1001.7;;;11.82;55.96
54459;BME280;40368;49.350;8.152;2022-11-14T01:29:45;1001.7;;;11.81;55.91
54459;BME280;40368;49.350;8.152;2022-11-14T01:31:06;1001.6;;;11.84;55.86
54459;BME280;40368;49.350;8.152;2022-11-14T01:32:13;1001.6;;;11.85;55.95
54459;BME280;40368;49.350;8.152;2022-11-14T01:32:50;1001.6;;;11.85;55.91
54459;BME280;40368;49.350;8.152;2022-11-14T01:34:04;1001.6;;;11.84;56.07
54459;BME280;40368;49.350;8.152;2022-11-14T01:35:18;1001.6;;;11.86;56.15
54459;BME280;40368;49.350;8.152;2022-11-14T01:35:57;1001.6;;;11.86;56.14
54459;BME280;40368;49.350;8.152;2022-11-14T01:37:10;1001.5;;;11.88;56.04
54459;BME280;40368;49.350;8.152;2022-11-14T01:37:47;1001.6;;;11.87;56.09
54459;BME280;40368;49.350;8.152;2022-11-14T01:39:01;1001.6;;;11.89;56.08
54459;BME280;40368;49.350;8.152;2022-11-14T01:40:15;1001.5;;;11.89;56.29
54459;BME280;40368;49.350;8.152;2022-11-14T01:40:52;1001.5;;;11.9;56.15
54459;BME280;40368;49.350;8.152;2022-11-14T01:42:06;1001.5;;;11.89;56.23
54459;BME280;40368;49.350;8.152;2022-11-14T01:43:07;1001.5;;;11.89;56.4
54459;BME280;40368;49.350;8.152;2022-11-14T01:43:57;1001.4;;;11.89;56.56
54459;BME280;40368;49.350;8.152;2022-11-14T01:45:51;1001.4;;;11.9;56.59
54459;BME280;40368;49.350;8.152;2022-11-14T01:46:17;1001.3;;;11.92;56.44
54459;BME280;40368;49.350;8.152;2022-11-14T01:47:03;1001.4;;;11.93;56.67
54459;BME280;40368;49.350;8.152;2022-11-14T01:48:17;1001.3;;;11.94;56.68
54459;BME280;40368;49.350;8.152;2022-11-14T01:48:54;1001.3;;;11.93;56.78
54459;BME280;40368;49.350;8.152;2022-11-14T01:50:08;1001.3;;;11.96;56.73
54459;BME280;40368;49.350;8.152;2022-11-14T01:50:45;1001.3;;;11.95;56.73
54459;BME280;40368;49.350;8.152;2022-11-14T01:52:01;1001.2;;;11.95;56.86
54459;BME280;40368;49.350;8.152;2022-11-14T01:53:13;1001.2;;;11.95;56.9
54459;BME280;40368;49.350;8.152;2022-11-14T01:53:51;1001.3;;;11.96;56.81
54459;BME280;40368;49.350;8.152;2022-11-14T01:55:05;1001.2;;;11.94;57.24
54459;BME280;40368;49.350;8.152;2022-11-14T01:55:41;1001.2;;;11.97;57.06
54459;BME280;40368;49.350;8.152;2022-11-14T01:56:56;1001.2;;;11.92;57.19
54459;BME280;40368;49.350;8.152;2022-11-14T01:58:10;1001.3;;;11.97;57
54459;BME280;40368;49.350;8.152;2022-11-14T01:58:48;1001.3;;;11.95;57.25
54459;BME280;40368;49.350;8.152;2022-11-14T02:00:03;1001.2;;;11.96;57.25
54459;BME280;40368;49.350;8.152;2022-11-14T02:01:15;1001.2;;;12;57.16
54459;BME280;40368;49.350;8.152;2022-11-14T02:01:52;1001.2;;;11.98;57.14
54459;BME280;40368;49.350;8.152;2022-11-14T02:03:06;1001.1;;;12.01;57.12
54459;BME280;40368;49.350;8.152;2022-11-14T02:04:21;1001.1;;;12.02;57.21
54459;BME280;40368;49.350;8.152;2022-11-14T02:06:03;1001.1;;;12.07;57.11
54459;BME280;40368;49.350;8.152;2022-11-14T02:06:40;1001.1;;;12.04;57.1
54459;BME280;40368;49.350;8.152;2022-11-14T02:07:54;1001.1;;;12.06;57.4
54459;BME280;40368;49.350;8.152;2022-11-14T02:09:09;1001;;;12.05;57.31
54459;BME280;40368;49.350;8.152;2022-11-14T02:09:46;1001;;;12.04;57.19
54459;BME280;40368;49.350;8.152;2022-11-14T02:11:00;1001;;;12.06;57.18
54459;BME280;40368;49.350;8.152;2022-11-14T02:12:15;1001;;;12.07;57.15
54459;BME280;40368;49.350;8.152;2022-11-14T02:12:51;1001;;;12.06;57.2
54459;BME280;40368;49.350;8.152;2022-11-14T02:14:05;1000.9;;;12.07;56.97
54459;BME280;40368;49.350;8.152;2022-11-14T02:14:43;1001;;;12.08;57.14
54459;BME280;40368;49.350;8.152;2022-11-14T02:15:56;1000.9;;;12.08;57.05
54459;BME280;40368;49.350;8.152;2022-11-14T02:17:11;1000.9;;;12.07;57.21
54459;BME280;40368;49.350;8.152;2022-11-14T02:17:47;1000.9;;;12.08;57.08
54459;BME280;40368;49.350;8.152;2022-11-14T02:19:02;1000.9;;;12.07;57.32
54459;BME280;40368;49.350;8.152;2022-11-14T02:20:18;1000.9;;;12.07;57.29
54459;BME280;40368;49.350;8.152;2022-11-14T02:20:53;1000.9;;;12.07;57.32
54459;BME280;40368;49.350;8.152;2022-11-14T02:22:07;1000.8;;;12.06;57.32
54459;BME280;40368;49.350;8.152;2022-11-14T02:22:44;1000.8;;;12.06;57.27
54459;BME280;40368;49.350;8.152;2022-11-14T02:23:58;1000.8;;;12.04;57.3
54459;BME280;40368;49.350;8.152;2022-11-14T02:25:13;1000.8;;;12.04;57.57
54459;BME280;40368;49.350;8.152;2022-11-14T02:25:49;1000.8;;;12.05;57.22
54459;BME280;40368;49.350;8.152;2022-11-14T02:27:04;1000.8;;;12.05;57.29
54459;BME280;40368;49.350;8.152;2022-11-14T02:28:18;1000.8;;;12.06;57.46
54459;BME280;40368;49.350;8.152;2022-11-14T02:28:55;1000.8;;;12.05;57.36
54459;BME280;40368;49.350;8.152;2022-11-14T02:30:10;1000.8;;;12.02;57.58
54459;BME280;40368;49.350;8.152;2022-11-14T02:30:46;1000.8;;;12.04;57.7
54459;BME280;40368;49.350;8.152;2022-11-14T02:32:00;1000.8;;;12.01;57.81
54459;BME280;40368;49.350;8.152;2022-11-14T02:33:14;1000.8;;;12;57.63
54459;BME280;40368;49.350;8.152;2022-11-14T02:33:51;1000.8;;;12;57.49
54459;BME280;40368;49.350;8.152;2022-11-14T02:35:05;1000.8;;;11.98;57.5
54459;BME280;40368;49.350;8.152;2022-11-14T02:35:42;1000.8;;;11.99;57.53
54459;BME280;40368;49.350;8.152;2022-11-14T02:36:56;1000.8;;;11.99;57.57
54459;BME280;40368;49.350;8.152;2022-11-14T02:38:11;1000.8;;;12.03;57.38
54459;BME280;40368;49.350;8.152;2022-11-14T02:38:48;1000.8;;;12;57.4
54459;BME280;40368;49.350;8.152;2022-11-14T02:40:02;1000.8;;;12.05;57.41
54459;BME280;40368;49.350;8.152;2022-11-14T02:41:16;1000.8;;;12.07;57.22
54459;BME280;40368;49.350;8.152;2022-11-14T02:41:53;1000.8;;;12.06;57.18
54459;BME280;40368;49.350;8.152;2022-11-14T02:43:07;1000.8;;;12.04;57.19
54459;BME280;40368;49.350;8.152;2022-11-14T02:43:44;1000.8;;;12.06;57.13
54459;BME280;40368;49.350;8.152;2022-11-14T02:44:58;1000.8;;;12.03;57.34
54459;BME280;40368;49.350;8.152;2022-11-14T02:46:12;1000.7;;;12.04;57.19
54459;BME280;40368;49.350;8.152;2022-11-14T02:46:49;1000.8;;;12.05;57.34
54459;BME280;40368;49.350;8.152;2022-11-14T02:48:04;1000.7;;;12.03;57.19
54459;BME280;40368;49.350;8.152;2022-11-14T02:49:18;1000.8;;;12.03;57.12
54459;BME280;40368;49.350;8.152;2022-11-14T02:49:55;1000.8;;;12.02;57.22
54459;BME280;40368;49.350;8.152;2022-11-14T02:51:09;1000.8;;;12.05;57.13
54459;BME280;40368;49.350;8.152;2022-11-14T02:51:46;1000.8;;;12.03;57.2
54459;BME280;40368;49.350;8.152;2022-11-14T02:53:00;1000.8;;;12.05;57.24
54459;BME280;40368;49.350;8.152;2022-11-14T02:54:14;1000.7;;;12.05;57.32
54459;BME280;40368;49.350;8.152;2022-11-14T02:54:51;1000.8;;;12.05;57.22
54459;BME280;40368;49.350;8.152;2022-11-14T02:56:05;1000.7;;;12.06;57.22
54459;BME280;40368;49.350;8.152;2022-11-14T02:56:42;1000.7;;;12.06;57.33
54459;BME280;40368;49.350;8.152;2022-11-14T02:57:56;1000.7;;;12.07;57.35
54459;BME280;40368;49.350;8.152;2022-11-14T02:59:11;1000.7;;;12.04;57.39
54459;BME280;40368;49.350;8.152;2022-11-14T02:59:48;1000.7;;;12.06;57.32
54459;BME280;40368;49.350;8.152;2022-11-14T03:01:02;1000.7;;;12.04;57.39
54459;BME280;40368;49.350;8.152;2022-11-14T03:02:16;1000.6;;;12.03;57.35
54459;BME280;40368;49.350;8.152;2022-11-14T03:02:53;1000.7;;;12.05;57.37
54459;BME280;40368;49.350;8.152;2022-11-14T03:04:07;1000.6;;;12.05;57.45
54459;BME280;40368;49.350;8.152;2022-11-14T03:05:13;1000.6;;;12.05;57.4
54459;BME280;40368;49.350;8.152;2022-11-14T03:05:50;1000.6;;;12.05;57.36
54459;BME280;40368;49.350;8.152;2022-11-14T03:07:04;1000.6;;;12.07;57.48
54459;BME280;40368;49.350;8.152;2022-11-14T03:08:19;1000.6;;;12.08;57.43
54459;BME280;40368;49.350;8.152;2022-11-14T03:08:55;1000.6;;;12.06;57.25
54459;BME280;40368;49.350;8.152;2022-11-14T03:10:10;1000.4;;;12.07;57.43
54459;BME280;40368;49.350;8.152;2022-11-14T03:10:47;1000.5;;;12.07;57.3
54459;BME280;40368;49.350;8.152;2022-11-14T03:12:01;1000.5;;;12.08;57.37
54459;BME280;40368;49.350;8.152;2022-11-14T03:13:15;1000.4;;;12.08;57.39
54459;BME280;40368;49.350;8.152;2022-11-14T03:13:52;1000.4;;;12.08;57.36
54459;BME280;40368;49.350;8.152;2022-11-14T03:15:06;1000.4;;;12.08;57.37
54459;BME280;40368;49.350;8.152;2022-11-14T03:15:43;1000.4;;;12.09;57.3
54459;BME280;40368;49.350;8.152;2022-11-14T03:16:57;1000.5;;;12.11;57.32
54459;BME280;40368;49.350;8.152;2022-11-14T03:18:11;1000.5;;;12.13;57.19
54459;BME280;40368;49.350;8.152;2022-11-14T03:18:48;1000.4;;;12.11;57.18
54459;BME280;40368;49.350;8.152;2022-11-14T03:20:03;1000.4;;;12.12;57.2
54459;BME280;40368;49.350;8.152;2022-11-14T03:21:17;1000.5;;;12.13;57.42
54459;BME280;40368;49.350;8.152;2022-11-14T03:21:54;1000.4;;;12.13;57.12
54459;BME280;40368;49.350;8.152;2022-11-14T03:23:08;1000.4;;;12.12;57.3
54459;BME280;40368;49.350;8.152;2022-11-14T03:23:45;1000.5;;;12.14;57.12
54459;BME280;40368;49.350;8.152;2022-11-14T03:24:59;1000.4;;;12.12;57.23
54459;BME280;40368;49.350;8.152;2022-11-14T03:26:14;1000.4;;;12.13;57.35
54459;BME280;40368;49.350;8.152;2022-11-14T03:26:50;1000.4;;;12.13;57.41
54459;BME280;40368;49.350;8.152;2022-11-14T03:28:04;1000.4;;;12.14;57.21
54459;BME280;40368;49.350;8.152;2022-11-14T03:29:18;1000.4;;;12.15;57.46
54459;BME280;40368;49.350;8.152;2022-11-14T03:29:55;1000.4;;;12.14;57.44
54459;BME280;40368;49.350;8.152;2022-11-14T03:31:11;1000.4;;;12.15;57.4
54459;BME280;40368;49.350;8.152;2022-11-14T03:31:47;1000.4;;;12.15;57.36
54459;BME280;40368;49.350;8.152;2022-11-14T03:33:01;1000.5;;;12.15;57.25
54459;BME280;40368;49.350;8.152;2022-11-14T03:34:15;1000.5;;;12.15;57.21
54459;BME280;40368;49.350;8.152;2022-11-14T03:34:52;1000.4;;;12.15;57.37
54459;BME280;40368;49.350;8.152;2022-11-14T03:36:07;1000.5;;;12.14;57.33
54459;BME280;40368;49.350;8.152;2022-11-14T03:36:43;1000.5;;;12.15;57.45
54459;BME280;40368;49.350;8.152;2022-11-14T03:37:57;1000.5;;;12.13;57.38
54459;BME280;40368;49.350;8.152;2022-11-14T03:39:11;1000.5;;;12.16;57.35
54459;BME280;40368;49.350;8.152;2022-11-14T03:39:48;1000.5;;;12.14;57.36
54459;BME280;40368;49.350;8.152;2022-11-14T03:41:03;1000.5;;;12.15;57.42
54459;BME280;40368;49.350;8.152;2022-11-14T03:42:17;1000.5;;;12.13;57.62
54459;BME280;40368;49.350;8.152;2022-11-14T03:42:55;1000.5;;;12.14;57.37
54459;BME280;40368;49.350;8.152;2022-11-14T03:44:08;1000.5;;;12.14;57.62
54459;BME280;40368;49.350;8.152;2022-11-14T03:44:45;1000.5;;;12.13;57.65
54459;BME280;40368;49.350;8.152;2022-11-14T03:45:59;1000.4;;;12.15;57.72
54459;BME280;40368;49.350;8.152;2022-11-14T03:47:13;1000.4;;;12.15;57.9
54459;BME280;40368;49.350;8.152;2022-11-14T03:47:53;1000.4;;;12.16;57.73
54459;BME280;40368;49.350;8.152;2022-11-14T03:49:04;1000.4;;;12.15;57.83
54459;BME280;40368;49.350;8.152;2022-11-14T03:50:19;1000.5;;;12.16;58.11
54459;BME280;40368;49.350;8.152;2022-11-14T03:50:56;1000.5;;;12.15;58.01
54459;BME280;40368;49.350;8.152;2022-11-14T03:52:10;1000.5;;;12.21;57.75
54459;BME280;40368;49.350;8.152;2022-11-14T03:52:47;1000.5;;;12.17;57.94
54459;BME280;40368;49.350;8.152;2022-11-14T03:54:01;1000.4;;;12.22;57.85
54459;BME280;40368;49.350;8.152;2022-11-14T03:55:15;1000.5;;;12.24;57.78
54459;BME280;40368;49.350;8.152;2022-11-14T03:55:52;1000.5;;;12.23;57.88
54459;BME280;40368;49.350;8.152;2022-11-14T03:57:07;1000.5;;;12.24;57.75
54459;BME280;40368;49.350;8.152;2022-11-14T03:57:43;1000.5;;;12.23;57.74
54459;BME280;40368;49.350;8.152;2022-11-14T03:58:57;1000.5;;;12.26;57.79
54459;BME280;40368;49.350;8.152;2022-11-14T04:00:12;998;;;10.71;57.44
54459;BME280;40368;49.350;8.152;2022-11-14T04:00:49;1000.5;;;12.28;57.59
54459;BME280;40368;49.350;8.152;2022-11-14T04:02:03;1000.5;;;12.3;57.43
54459;BME280;40368;49.350;8.152;2022-11-14T04:03:17;1000.4;;;12.32;57.43
54459;BME280;40368;49.350;8.152;2022-11-14T04:03:54;1000.5;;;12.31;57.46
54459;BME280;40368;49.350;8.152;2022-11-14T04:04:31;1000.4;;;12.32;57.37
54459;BME280;40368;49.350;8.152;2022-11-14T04:05:37;1000.4;;;12.31;57.27
54459;BME280;40368;49.350;8.152;2022-11-14T04:06:51;1000.4;;;12.34;57.4
54459;BME280;40368;49.350;8.152;2022-11-14T04:08:05;1000.3;;;12.32;57.24
54459;BME280;40368;49.350;8.152;2022-11-14T04:08:42;1000.4;;;12.33;57.39
54459;BME280;40368;49.350;8.152;2022-11-14T04:09:56;1000.3;;;12.33;57.43
54459;BME280;40368;49.350;8.152;2022-11-14T04:11:11;1000.3;;;12.31;57.32
54459;BME280;40368;49.350;8.152;2022-11-14T04:11:48;1000.3;;;12.31;57.31
54459;BME280;40368;49.350;8.152;2022-11-14T04:13:02;1000.3;;;12.29;57.41
54459;BME280;40368;49.350;8.152;2022-11-14T04:14:16;1000.3;;;12.28;57.35
54459;BME280;40368;49.350;8.152;2022-11-14T04:14:53;1000.3;;;12.29;57.49
54459;BME280;40368;49.350;8.152;2022-11-14T04:16:07;1000.3;;;12.25;57.58
54459;BME280;40368;49.350;8.152;2022-11-14T04:16:44;1000.3;;;12.27;57.41
54459;BME280;40368;49.350;8.152;2022-11-14T04:17:58;1000.3;;;12.25;57.48
54459;BME280;40368;49.350;8.152;2022-11-14T04:19:12;1000.3;;;12.25;57.53
54459;BME280;40368;49.350;8.152;2022-11-14T04:19:49;1000.3;;;12.25;57.5
54459;BME280;40368;49.350;8.152;2022-11-14T04:21:04;1000.3;;;12.25;57.5
54459;BME280;40368;49.350;8.152;2022-11-14T04:22:18;1000.2;;;12.23;57.44
54459;BME280;40368;49.350;8.152;2022-11-14T04:22:55;1000.3;;;12.23;57.6
54459;BME280;40368;49.350;8.152;2022-11-14T04:24:09;1000.2;;;12.2;57.62
54459;BME280;40368;49.350;8.152;2022-11-14T04:24:46;1000.2;;;12.21;57.68
54459;BME280;40368;49.350;8.152;2022-11-14T04:26:00;1000.2;;;12.2;57.53
54459;BME280;40368;49.350;8.152;2022-11-14T04:27:14;1000.2;;;12.18;57.88
54459;BME280;40368;49.350;8.152;2022-11-14T04:27:51;1000.2;;;12.2;57.6
54459;BME280;40368;49.350;8.152;2022-11-14T04:29:05;1000.3;;;12.17;57.68
54459;BME280;40368;49.350;8.152;2022-11-14T04:29:42;1000.3;;;12.17;57.74
54459;BME280;40368;49.350;8.152;2022-11-14T04:30:56;1000.3;;;12.18;57.68
54459;BME280;40368;49.350;8.152;2022-11-14T04:32:11;1000.3;;;12.19;57.67
54459;BME280;40368;49.350;8.152;2022-11-14T04:32:48;1000.3;;;12.18;57.71
54459;BME280;40368;49.350;8.152;2022-11-14T04:34:02;1000.3;;;12.19;57.84
54459;BME280;40368;49.350;8.152;2022-11-14T04:35:17;1000.2;;;12.18;57.74
54459;BME280;40368;49.350;8.152;2022-11-14T04:35:53;1000.3;;;12.19;57.66
54459;BME280;40368;49.350;8.152;2022-11-14T04:37:07;1000.2;;;12.16;57.83
54459;BME280;40368;49.350;8.152;2022-11-14T04:37:44;1000.2;;;12.17;57.75
54459;BME280;40368;49.350;8.152;2022-11-14T04:38:59;1000.2;;;12.15;57.78
54459;BME280;40368;49.350;8.152;2022-11-14T04:40:13;1000.2;;;12.13;57.94
54459;BME280;40368;49.350;8.152;2022-11-14T04:40:50;1000.2;;;12.15;57.85
54459;BME280;40368;49.350;8.152;2022-11-14T04:42:04;1000.2;;;12.14;57.93
54459;BME280;40368;49.350;8.152;2022-11-14T04:43:18;1000.2;;;12.11;58.13
54459;BME280;40368;49.350;8.152;2022-11-14T04:43:55;1000.3;;;12.13;58.13
54459;BME280;40368;49.350;8.152;2022-11-14T04:45:09;1000.2;;;12.09;58.04
54459;BME280;40368;49.350;8.152;2022-11-14T04:45:46;1000.2;;;12.1;58.06
54459;BME280;40368;49.350;8.152;2022-11-14T04:47:00;1000.2;;;12.1;58.09
54459;BME280;40368;49.350;8.152;2022-11-14T04:48:14;1000.2;;;12.1;58.21
54459;BME280;40368;49.350;8.152;2022-11-14T04:48:51;1000.2;;;12.1;58.15
54459;BME280;40368;49.350;8.152;2022-11-14T04:50:06;1000.1;;;12.12;58.05
54459;BME280;40368;49.350;8.152;2022-11-14T04:50:43;1000.2;;;12.11;58.07
54459;BME280;40368;49.350;8.152;2022-11-14T04:51:57;1000.1;;;12.13;58.05
54459;BME280;40368;49.350;8.152;2022-11-14T04:53:11;1000.1;;;12.13;58.14
54459;BME280;40368;49.350;8.152;2022-11-14T04:53:48;1000.1;;;12.13;58.01
54459;BME280;40368;49.350;8.152;2022-11-14T04:55:02;1000;;;12.12;58.13
54459;BME280;40368;49.350;8.152;2022-11-14T04:56:16;1000;;;12.11;58.29
54459;BME280;40368;49.350;8.152;2022-11-14T04:56:53;1000;;;12.12;58.15
54459;BME280;40368;49.350;8.152;2022-11-14T04:58:07;1000;;;12.06;58.51
54459;BME280;40368;49.350;8.152;2022-11-14T04:58:44;1000;;;12.07;58.46
54459;BME280;40368;49.350;8.152;2022-11-14T04:59:58;1000;;;12.09;58.5
54459;BME280;40368;49.350;8.152;2022-11-14T05:01:13;1000;;;12.17;58.25
54459;BME280;40368;49.350;8.152;2022-11-14T05:01:50;1000;;;12.13;58.42
54459;BME280;40368;49.350;8.152;2022-11-14T05:03:04;1000;;;12.19;58.33
54459;BME280;40368;49.350;8.152;2022-11-14T05:04:18;1000;;;12.23;58.33
54459;BME280;40368;49.350;8.152;2022-11-14T05:06:09;1000;;;12.26;58.26
54459;BME280;40368;49.350;8.152;2022-11-14T05:07:52;1000.1;;;12.27;58.09
54459;BME280;40368;49.350;8.152;2022-11-14T05:09:06;1000.1;;;12.3;58.29
54459;BME280;40368;49.350;8.152;2022-11-14T05:09:43;1000.1;;;12.29;58.2
54459;BME280;40368;49.350;8.152;2022-11-14T05:10:57;1000;;;12.32;58.08
54459;BME280;40368;49.350;8.152;2022-11-14T05:12:11;1000;;;12.35;58.23
54459;BME280;40368;49.350;8.152;2022-11-14T05:12:51;1000;;;12.33;58.27
54459;BME280;40368;49.350;8.152;2022-11-14T05:14:03;1000;;;12.32;58.06
54459;BME280;40368;49.350;8.152;2022-11-14T05:15:17;1000;;;12.34;58.17
54459;BME280;40368;49.350;8.152;2022-11-14T05:15:57;1000;;;12.33;58.25
54459;BME280;40368;49.350;8.152;2022-11-14T05:17:08;999.9;;;12.37;58.11
54459;BME280;40368;49.350;8.152;2022-11-14T05:17:45;1000;;;12.36;57.98
54459;BME280;40368;49.350;8.152;2022-11-14T05:18:59;999.9;;;12.39;57.92
54459;BME280;40368;49.350;8.152;2022-11-14T05:20:13;999.9;;;12.4;57.94
54459;BME280;40368;49.350;8.152;2022-11-14T05:20:50;999.9;;;12.4;57.93
54459;BME280;40368;49.350;8.152;2022-11-14T05:22:04;999.9;;;12.39;57.81
54459;BME280;40368;49.350;8.152;2022-11-14T05:23:19;999.9;;;12.39;57.88
54459;BME280;40368;49.350;8.152;2022-11-14T05:23:56;999.9;;;12.4;57.87
54459;BME280;40368;49.350;8.152;2022-11-14T05:25:10;999.9;;;12.38;57.88
54459;BME280;40368;49.350;8.152;2022-11-14T05:25:52;999.8;;;12.38;58.01
54459;BME280;40368;49.350;8.152;2022-11-14T05:27:01;999.9;;;12.38;57.82
54459;BME280;40368;49.350;8.152;2022-11-14T05:28:15;999.8;;;12.36;57.93
54459;BME280;40368;49.350;8.152;2022-11-14T05:28:52;999.8;;;12.37;57.94
54459;BME280;40368;49.350;8.152;2022-11-14T05:30:07;999.8;;;12.34;57.99
54459;BME280;40368;49.350;8.152;2022-11-14T05:30:43;999.8;;;12.35;57.84
54459;BME280;40368;49.350;8.152;2022-11-14T05:31:57;999.9;;;12.33;58.02
54459;BME280;40368;49.350;8.152;2022-11-14T05:33:12;999.4;;;12.05;58.09